Time;durP1;ratioP1;P1;durP2;ratioP2;P2;SDS_P1;SDS_P2;PMS_P1;PMS_P2;Temp;Humidity;BMP_temperature;BMP_pressure;BME280_temperature;BME280_humidity;BME280_pressure;Samples;Min_cycle;Max_cycle;Signal;HPM_P1;HPM_P2
2022/10/09 00:00:34;;;;;;;7.63;3.95;;;10.10;80.70;;;8.77;100.00;96858.91;4922036;28;20064;-69
2022/10/09 00:03:00;;;;;;;8.35;4.20;;;10.20;80.90;;;8.72;100.00;96860.38;4901144;28;20040;-69
2022/10/09 00:05:26;;;;;;;8.30;3.72;;;10.10;80.70;;;8.69;100.00;96850.22;4890156;28;20041;-70
2022/10/09 00:07:53;;;;;;;5.72;3.58;;;10.10;80.70;;;8.66;100.00;96853.16;4904827;29;20063;-70
2022/10/09 00:10:19;;;;;;;11.98;3.70;;;10.10;80.80;;;8.63;100.00;96858.72;4932692;28;20410;-70
2022/10/09 00:12:44;;;;;;;8.48;3.88;;;10.10;80.90;;;8.61;100.00;96852.81;4905188;29;20036;-69
2022/10/09 00:15:10;;;;;;;9.63;4.30;;;10.10;81.00;;;8.58;100.00;96849.50;4919730;28;20072;-71
2022/10/09 00:17:36;;;;;;;6.78;3.95;;;10.10;81.10;;;8.56;100.00;96848.84;4890852;28;20202;-71
2022/10/09 00:20:02;;;;;;;7.07;3.90;;;10.00;80.90;;;8.54;100.00;96848.19;4916156;28;20179;-71
2022/10/09 00:22:28;;;;;;;7.10;4.32;;;10.00;80.90;;;8.52;100.00;96851.94;4889116;28;20060;-70
2022/10/09 00:24:54;;;;;;;7.95;4.20;;;10.00;81.00;;;8.49;100.00;96839.97;4920814;28;20151;-70
2022/10/09 00:27:21;;;;;;;8.93;4.32;;;9.90;81.10;;;8.47;100.00;96841.13;4889862;29;20075;-70
2022/10/09 00:29:48;;;;;;;7.45;4.32;;;10.00;81.20;;;8.44;100.00;96842.25;4896609;29;20127;-71
2022/10/09 00:32:13;;;;;;;8.10;4.15;;;9.90;81.00;;;8.42;100.00;96838.97;4914020;28;20143;-71
2022/10/09 00:34:39;;;;;;;8.02;4.40;;;9.90;81.00;;;8.40;100.00;96835.69;4893719;29;20127;-70
2022/10/09 00:37:05;;;;;;;10.15;3.90;;;9.80;81.00;;;8.38;100.00;96832.41;4903290;28;20135;-70
2022/10/09 00:39:31;;;;;;;6.35;4.05;;;9.80;81.00;;;8.37;100.00;96829.91;4948305;28;20032;-70
2022/10/09 00:41:57;;;;;;;11.13;4.18;;;9.70;81.20;;;8.31;100.00;96831.34;4901965;29;20816;-70
2022/10/09 00:44:59;;;;;;;8.05;4.03;;;9.70;80.90;;;8.28;100.00;96831.66;4905195;28;20054;-70
2022/10/09 00:47:37;;;;;;;5.78;3.60;;;9.70;81.00;;;8.25;100.00;96822.31;4895753;29;20512;-70
2022/10/09 00:50:18;;;;;;;9.10;4.05;;;9.70;81.00;;;8.22;100.00;96819.19;4918746;29;20116;-70
2022/10/09 00:52:45;;;;;;;6.80;3.83;;;9.70;81.20;;;8.18;100.00;96821.31;4917831;28;20056;-71
2022/10/09 00:55:11;;;;;;;11.88;4.13;;;9.60;81.40;;;8.15;100.00;96815.56;4900061;28;20036;-70
2022/10/09 00:57:37;;;;;;;7.80;4.15;;;9.60;81.20;;;8.14;100.00;96811.25;4889175;29;20050;-71
2022/10/09 01:00:06;;;;;;;9.45;3.47;;;9.60;81.00;;;8.11;100.00;96811.56;4920213;29;20044;-71
2022/10/09 01:02:38;;;;;;;8.40;3.92;;;9.60;81.00;;;8.09;100.00;96811.72;4891384;29;20067;-71
2022/10/09 01:05:05;;;;;;;7.45;3.95;;;9.60;81.40;;;8.08;100.00;96811.91;4913246;28;20514;-71
2022/10/09 01:07:47;;;;;;;7.88;3.72;;;9.60;81.40;;;8.07;100.00;96802.38;4902238;28;20725;-70
2022/10/09 01:10:22;;;;;;;8.98;3.70;;;9.60;81.50;;;8.07;100.00;96802.38;4910293;28;20104;-70
2022/10/09 01:13:10;;;;;;;7.53;3.83;;;9.60;81.70;;;8.06;100.00;96800.75;4899321;28;20086;-70
2022/10/09 01:15:49;;;;;;;6.60;4.18;;;9.60;81.70;;;8.05;100.00;96796.50;4884126;28;20086;-70
2022/10/09 01:18:34;;;;;;;8.23;3.88;;;9.60;81.60;;;8.05;100.00;96799.09;4980068;28;20054;-69
2022/10/09 01:21:09;;;;;;;7.35;4.15;;;9.60;81.70;;;8.03;100.00;96795.81;4931642;28;20077;-70
2022/10/09 01:24:00;;;;;;;8.80;3.85;;;9.50;81.60;;;8.02;100.00;96791.56;4916951;28;20037;-69
2022/10/09 01:26:48;;;;;;;7.35;4.25;;;9.50;81.70;;;8.01;100.00;96795.97;4911638;28;20131;-69
2022/10/09 01:29:14;;;;;;;9.43;4.28;;;9.50;81.70;;;7.97;100.00;96787.63;4905068;29;20047;-71
2022/10/09 01:31:43;;;;;;;11.18;3.95;;;9.60;81.70;;;7.96;100.00;96791.22;4888642;28;20123;-72
2022/10/09 01:34:09;;;;;;;11.00;4.28;;;9.50;81.80;;;7.94;100.00;96793.16;4908893;28;20041;-71
2022/10/09 01:36:35;;;;;;;8.10;3.25;;;9.50;81.90;;;7.93;100.00;96783.66;4888683;29;20032;-71
2022/10/09 01:39:02;;;;;;;7.97;3.80;;;9.40;81.80;;;7.90;100.00;96786.56;4927693;28;20055;-72
2022/10/09 01:41:27;;;;;;;10.00;3.92;;;9.40;81.70;;;7.87;100.00;96786.88;4890857;29;20123;-71
2022/10/09 01:43:53;;;;;;;10.35;4.15;;;9.30;81.80;;;7.85;100.00;96782.78;4904169;29;20042;-71
2022/10/09 01:46:30;;;;;;;9.60;4.28;;;9.40;82.00;;;7.86;100.00;96780.00;4915827;28;20076;-71
2022/10/09 01:49:38;;;;;;;7.75;3.58;;;9.40;82.10;;;7.83;100.00;96774.25;4900775;28;20541;-71
2022/10/09 01:52:28;;;;;;;10.23;4.22;;;9.40;82.00;;;7.82;100.00;96770.00;4912069;29;20048;-71
2022/10/09 01:55:07;;;;;;;6.53;3.97;;;9.40;82.20;;;7.80;100.00;96766.72;4901713;29;20044;-71
2022/10/09 01:58:02;;;;;;;9.75;3.75;;;9.30;81.90;;;7.79;100.00;96767.69;4935729;28;20063;-72
2022/10/09 02:00:30;;;;;;;5.72;3.58;;;9.30;81.80;;;7.76;100.00;96768.84;4904871;28;20033;-71
2022/10/09 02:02:55;;;;;;;7.68;3.30;;;9.30;81.50;;;7.74;100.00;96770.78;4887642;28;20111;-71
2022/10/09 02:05:24;;;;;;;6.22;3.47;;;9.20;81.40;;;7.72;100.00;96762.28;4925984;28;20064;-71
2022/10/09 02:07:50;;;;;;;4.82;3.60;;;9.20;81.30;;;7.71;100.00;96752.78;4895998;28;20036;-71
2022/10/09 02:10:16;;;;;;;8.40;3.85;;;9.30;81.60;;;7.68;100.00;96756.50;4890013;28;20040;-72
2022/10/09 02:12:46;;;;;;;8.55;3.80;;;9.20;81.90;;;7.70;100.00;96755.53;4914024;28;20037;-72
2022/10/09 02:15:12;;;;;;;9.57;4.00;;;9.20;82.10;;;7.69;100.00;96749.47;4897840;28;20036;-71
2022/10/09 02:17:42;;;;;;;8.82;4.35;;;9.20;82.40;;;7.70;100.00;96745.91;4885521;28;20481;-71
2022/10/09 02:20:13;;;;;;;9.35;3.70;;;9.30;82.30;;;7.69;100.00;96749.47;4891098;29;20063;-72
2022/10/09 02:22:39;;;;;;;9.32;4.13;;;9.30;82.40;;;7.70;100.00;96748.50;4896033;28;20047;-71
2022/10/09 02:25:05;;;;;;;8.25;4.32;;;9.30;82.40;;;7.71;100.00;96750.16;4924323;28;20455;-71
2022/10/09 02:27:32;;;;;;;9.00;4.30;;;9.20;82.10;;;7.69;100.00;96746.84;4890819;28;20049;-71
2022/10/09 02:29:58;;;;;;;8.73;4.80;;;9.20;81.90;;;7.68;100.00;96746.03;4890520;29;20395;-71
2022/10/09 02:32:23;;;;;;;8.10;4.43;;;9.20;82.00;;;7.66;100.00;96742.75;4906807;28;20036;-70
2022/10/09 02:34:49;;;;;;;9.50;4.57;;;9.30;82.00;;;7.66;100.00;96742.75;4909202;28;20126;-71
2022/10/09 02:37:15;;;;;;;11.55;4.28;;;9.20;82.10;;;7.67;100.00;96738.31;4893876;29;20047;-71
2022/10/09 02:39:42;;;;;;;9.63;4.57;;;9.20;82.10;;;7.66;100.00;96736.69;4904252;28;20063;-71
2022/10/09 02:42:08;;;;;;;7.65;4.78;;;9.10;82.00;;;7.65;100.00;96737.66;4950620;28;20030;-71
2022/10/09 02:44:34;;;;;;;7.75;4.63;;;9.20;82.00;;;7.62;100.00;96735.34;4949995;28;20440;-71
2022/10/09 02:46:59;;;;;;;8.35;4.40;;;9.10;81.80;;;7.60;100.00;96743.38;4893965;29;20040;-71
2022/10/09 02:49:25;;;;;;;7.88;4.40;;;9.10;81.70;;;7.60;100.00;96737.31;4891116;29;20115;-71
2022/10/09 02:51:51;;;;;;;14.43;5.18;;;9.10;81.70;;;7.57;100.00;96738.44;4908641;28;20115;-71
2022/10/09 02:54:16;;;;;;;9.00;4.70;;;9.10;81.70;;;7.57;100.00;96745.47;4910938;28;20052;-69
2022/10/09 02:56:42;;;;;;;9.20;4.68;;;9.10;81.70;;;7.54;100.00;96740.56;4924906;28;20035;-69
2022/10/09 02:59:08;;;;;;;8.30;4.55;;;9.10;81.80;;;7.52;100.00;96742.50;4926980;28;20123;-69
2022/10/09 03:01:34;;;;;;;10.98;5.03;;;9.10;81.50;;;7.49;100.00;96732.34;4885463;28;20517;-69
2022/10/09 03:03:59;;;;;;;9.98;5.20;;;9.10;81.60;;;7.48;100.00;96728.09;4902586;28;20400;-68
2022/10/09 03:06:26;;;;;;;7.50;4.80;;;9.00;81.70;;;7.46;100.00;96735.25;4911634;28;20046;-70
2022/10/09 03:08:52;;;;;;;9.85;4.50;;;9.00;81.90;;;7.44;100.00;96721.50;4896752;28;20044;-69
2022/10/09 03:11:19;;;;;;;8.77;4.78;;;9.00;81.80;;;7.43;100.00;96725.09;4946862;28;20035;-69
2022/10/09 03:13:45;;;;;;;11.18;4.85;;;9.00;81.70;;;7.40;100.00;96725.41;4894044;29;20496;-69
2022/10/09 03:16:19;;;;;;;15.65;5.22;;;9.00;82.00;;;7.40;100.00;96728.00;4892920;29;20044;-69
2022/10/09 03:18:45;;;;;;;8.90;4.68;;;8.90;81.70;;;7.38;100.00;96730.78;4906419;29;20125;-69
2022/10/09 03:21:14;;;;;;;9.07;5.05;;;8.90;81.90;;;7.34;100.00;96717.19;4907066;28;20036;-69
2022/10/09 03:23:40;;;;;;;6.40;4.65;;;8.90;81.80;;;7.35;100.00;96716.22;4917092;28;20036;-70
2022/10/09 03:26:10;;;;;;;9.18;4.80;;;8.90;81.80;;;7.33;100.00;96717.34;4968845;28;20084;-70
2022/10/09 03:28:42;;;;;;;10.55;4.78;;;8.80;81.90;;;7.32;100.00;96713.91;4905783;28;20044;-70
2022/10/09 03:31:08;;;;;;;9.88;5.10;;;8.90;82.00;;;7.30;100.00;96720.28;4891403;28;20436;-70
2022/10/09 03:33:34;;;;;;;7.78;4.55;;;8.90;82.00;;;7.29;100.00;96708.97;4913640;28;20078;-69
2022/10/09 03:36:00;;;;;;;7.72;4.75;;;8.80;81.80;;;7.29;100.00;96711.59;4890242;29;20079;-68
2022/10/09 03:38:26;;;;;;;10.38;4.90;;;8.80;82.00;;;7.29;100.00;96716.00;4896884;28;20124;-69
2022/10/09 03:40:52;;;;;;;9.90;4.93;;;8.80;81.80;;;7.27;100.00;96710.13;4893176;29;20039;-69
2022/10/09 03:43:17;;;;;;;7.63;4.80;;;8.80;81.90;;;7.26;100.00;96708.47;4892933;28;20507;-69
2022/10/09 03:45:43;;;;;;;12.48;5.05;;;8.80;81.80;;;7.26;100.00;96713.72;4914752;28;20040;-69
2022/10/09 03:48:10;;;;;;;7.80;4.85;;;8.80;81.90;;;7.23;100.00;96708.75;4923810;28;20034;-69
2022/10/09 03:50:39;;;;;;;7.30;4.95;;;8.80;82.00;;;7.22;100.00;96710.56;4901289;29;20050;-69
2022/10/09 03:53:06;;;;;;;8.95;4.95;;;8.80;81.80;;;7.19;100.00;96718.72;4928781;28;20036;-69
2022/10/09 03:55:32;;;;;;;8.82;5.80;;;8.70;81.60;;;7.16;100.00;96715.59;4923192;28;20052;-69
2022/10/09 03:57:58;;;;;;;12.98;4.97;;;8.70;81.80;;;7.13;100.00;96719.31;4901399;28;20108;-68
2022/10/09 04:00:23;;;;;;;10.63;5.38;;;8.70;81.70;;;7.11;100.00;96712.59;4891449;28;20574;-69
2022/10/09 04:02:49;;;;;;;9.93;4.65;;;8.60;81.90;;;7.08;100.00;96716.34;4902805;28;20127;-69
2022/10/09 04:05:15;;;;;;;10.85;4.90;;;8.60;81.80;;;7.05;100.00;96711.44;4969896;28;20046;-69
2022/10/09 04:07:41;;;;;;;8.68;4.78;;;8.60;81.70;;;7.02;100.00;96716.97;4903438;28;20385;-69
2022/10/09 04:10:07;;;;;;;9.38;5.40;;;8.60;81.60;;;7.01;100.00;96717.91;4922036;28;20048;-69
2022/10/09 04:12:32;;;;;;;9.60;5.20;;;8.60;81.90;;;7.01;100.00;96710.06;4882917;28;20039;-70
2022/10/09 04:14:58;;;;;;;9.15;5.07;;;8.60;82.00;;;7.01;100.00;96717.91;4904864;28;20107;-70
2022/10/09 04:17:24;;;;;;;9.70;4.80;;;8.60;82.10;;;6.98;100.00;96705.97;4936563;28;20034;-69
2022/10/09 04:19:50;;;;;;;8.52;4.72;;;8.60;82.20;;;6.97;100.00;96704.31;4914538;28;20556;-69
2022/10/09 04:22:16;;;;;;;8.95;5.22;;;8.60;82.40;;;6.98;100.00;96702.53;4906405;28;20512;-69
2022/10/09 04:24:41;;;;;;;10.85;5.22;;;8.60;82.50;;;6.98;100.00;96705.13;4900415;28;20067;-69
2022/10/09 04:27:07;;;;;;;7.93;4.85;;;8.60;82.60;;;6.99;100.00;96714.63;4916579;28;20087;-69
2022/10/09 04:29:33;;;;;;;8.57;4.85;;;8.60;82.70;;;6.97;100.00;96708.72;4931576;28;20064;-69
2022/10/09 04:31:59;;;;;;;13.18;5.28;;;8.60;82.50;;;6.97;100.00;96708.72;4920115;28;20111;-69
2022/10/09 04:34:24;;;;;;;10.10;5.43;;;8.60;82.70;;;6.98;100.00;96705.97;4934133;28;20043;-69
2022/10/09 04:36:50;;;;;;;9.75;5.72;;;8.60;83.00;;;6.98;100.00;96703.34;4907709;29;20055;-69
2022/10/09 04:39:16;;;;;;;10.98;6.38;;;8.60;83.00;;;7.01;100.00;96699.59;4932269;28;20034;-69
2022/10/09 04:41:42;;;;;;;12.55;5.65;;;8.70;82.90;;;7.01;100.00;96704.84;4956027;28;20128;-69
2022/10/09 04:44:07;;;;;;;8.93;5.40;;;8.70;82.80;;;7.00;100.00;96706.63;4895227;28;20056;-70
2022/10/09 04:46:33;;;;;;;9.80;5.03;;;8.60;82.60;;;7.00;100.00;96713.66;4945717;28;20122;-69
2022/10/09 04:48:59;;;;;;;9.13;5.85;;;8.60;82.40;;;6.98;100.00;96708.56;4900362;28;20048;-70
2022/10/09 04:51:24;;;;;;;11.68;5.45;;;8.60;82.30;;;6.99;100.00;96706.78;4890296;28;20066;-70
2022/10/09 04:53:50;;;;;;;9.88;4.93;;;8.60;82.40;;;6.98;100.00;96708.56;4931749;28;20151;-70
2022/10/09 04:56:18;;;;;;;7.40;5.03;;;8.60;82.30;;;6.98;100.00;96705.13;4929081;28;20109;-70
2022/10/09 04:58:44;;;;;;;9.98;6.53;;;8.60;82.60;;;6.97;100.00;96708.72;4911839;28;20048;-70
2022/10/09 05:01:14;;;;;;;12.10;6.43;;;8.60;82.90;;;6.97;100.00;96703.50;4889992;28;20032;-69
2022/10/09 05:03:40;;;;;;;11.90;6.38;;;8.60;83.30;;;6.97;100.00;96708.72;4902381;28;20028;-72
2022/10/09 05:06:08;;;;;;;9.85;6.05;;;8.60;83.60;;;6.96;100.00;96707.91;4922949;28;20112;-70
2022/10/09 05:08:34;;;;;;;12.35;7.15;;;8.60;83.80;;;6.98;100.00;96699.91;4923308;28;20075;-70
2022/10/09 05:11:07;;;;;;;10.85;6.65;;;8.70;84.20;;;7.00;100.00;96708.44;4886636;28;20052;-69
2022/10/09 05:13:40;;;;;;;13.13;7.80;;;8.60;84.30;;;7.03;100.00;96713.38;4891465;28;20032;-70
2022/10/09 05:16:09;;;;;;;12.07;7.25;;;8.70;84.40;;;7.04;100.00;96704.56;4892032;29;20050;-70
2022/10/09 05:18:35;;;;;;;12.40;7.25;;;8.70;84.20;;;7.04;100.00;96704.56;4910387;28;20040;-69
2022/10/09 05:21:04;;;;;;;12.90;6.85;;;8.80;84.00;;;7.06;100.00;96708.66;4900599;28;20051;-69
2022/10/09 05:23:31;;;;;;;12.82;7.07;;;8.70;84.00;;;7.07;100.00;96705.06;4898201;28;20040;-69
2022/10/09 05:25:59;;;;;;;9.85;6.45;;;8.80;83.80;;;7.07;100.00;96710.31;4952882;28;20126;-68
2022/10/09 05:28:25;;;;;;;15.23;7.03;;;8.80;83.70;;;7.07;100.00;96706.88;4948940;28;20059;-69
2022/10/09 05:30:51;;;;;;;12.55;7.07;;;8.80;83.70;;;7.08;100.00;96705.88;4903786;28;20423;-70
2022/10/09 05:33:16;;;;;;;12.38;7.72;;;8.80;83.70;;;7.08;100.00;96695.44;4891758;28;20107;-69
2022/10/09 05:35:56;;;;;;;14.35;7.68;;;8.80;83.80;;;7.10;100.00;96697.88;4916359;28;20573;-69
2022/10/09 05:38:22;;;;;;;15.70;7.47;;;8.80;83.90;;;7.10;100.00;96698.72;4902216;28;20041;-70
2022/10/09 05:41:03;;;;;;;14.90;6.90;;;8.80;83.80;;;7.11;100.00;96700.34;4892908;28;20412;-70
2022/10/09 05:43:32;;;;;;;14.25;7.22;;;8.80;83.80;;;7.11;100.00;96699.53;4920341;28;20045;-69
2022/10/09 05:46:09;;;;;;;12.30;6.85;;;8.80;83.80;;;7.13;100.00;96706.25;4898790;28;20143;-69
2022/10/09 05:48:37;;;;;;;10.52;6.20;;;8.80;83.90;;;7.14;100.00;96699.22;4878784;28;20051;-70
2022/10/09 05:51:30;;;;;;;12.25;6.63;;;8.90;83.90;;;7.17;100.00;96699.72;4890074;28;20032;-70
2022/10/09 05:53:56;;;;;;;11.65;6.43;;;8.90;83.80;;;7.19;100.00;96687.31;4892696;28;20037;-72
2022/10/09 05:56:28;;;;;;;13.32;6.00;;;8.90;83.90;;;7.20;100.00;96690.75;4888773;28;20403;-69
2022/10/09 05:59:02;;;;;;;11.13;6.05;;;9.00;83.90;;;7.25;100.00;96696.38;4915065;28;20040;-67
2022/10/09 06:01:33;;;;;;;13.13;6.20;;;9.00;84.00;;;7.27;100.00;96687.38;4887093;29;20562;-68
2022/10/09 06:03:59;;;;;;;7.60;5.03;;;9.10;83.90;;;7.30;100.00;96689.69;4910929;28;20029;-69
2022/10/09 06:06:27;;;;;;;11.27;5.78;;;9.10;83.70;;;7.34;100.00;96691.03;4908700;28;20028;-70
2022/10/09 06:08:53;;;;;;;11.05;5.32;;;9.10;83.60;;;7.40;100.00;96694.00;4937975;28;20066;-71
2022/10/09 06:11:27;;;;;;;14.95;8.27;;;9.20;83.70;;;7.45;100.00;96691.72;4918669;28;20077;-71
2022/10/09 06:13:53;;;;;;;11.93;7.70;;;9.30;83.60;;;7.49;100.00;96695.69;4924359;28;20071;-70
2022/10/09 06:16:19;;;;;;;11.20;5.40;;;9.40;83.40;;;7.53;100.00;96694.41;4945620;28;20132;-72
2022/10/09 06:18:46;;;;;;;11.10;5.70;;;9.40;83.30;;;7.56;100.00;96697.53;4932825;28;20520;-71
2022/10/09 06:21:12;;;;;;;10.68;5.88;;;9.40;83.10;;;7.62;100.00;96699.53;4891340;28;20125;-71
2022/10/09 06:23:38;;;;;;;12.68;6.43;;;9.50;83.10;;;7.66;100.00;96697.41;4888815;28;20071;-71
2022/10/09 06:26:06;;;;;;;12.38;5.70;;;9.60;82.90;;;7.71;100.00;96702.19;4930993;28;20048;-71
2022/10/09 06:28:32;;;;;;;11.60;5.43;;;9.60;82.90;;;7.73;100.00;96706.31;4911266;28;20068;-71
2022/10/09 06:31:05;;;;;;;13.05;5.78;;;9.60;82.70;;;7.78;100.00;96706.66;4901747;28;20408;-71
2022/10/09 06:33:35;;;;;;;11.63;5.95;;;9.70;82.50;;;7.83;100.00;96706.16;4901206;28;20067;-70
2022/10/09 06:36:06;;;;;;;11.57;5.90;;;9.70;82.40;;;7.87;100.00;96708.31;4909404;28;20032;-71
2022/10/09 06:38:33;;;;;;;7.60;5.28;;;9.80;82.10;;;7.94;100.00;96698.88;4920240;28;20039;-71
2022/10/09 06:41:07;;;;;;;9.63;5.25;;;9.90;81.90;;;8.01;100.00;96698.22;4885600;28;20094;-70
2022/10/09 06:43:33;;;;;;;8.43;5.25;;;9.90;81.60;;;8.07;100.00;96694.97;4892399;28;20048;-68
2022/10/09 06:46:04;;;;;;;11.65;5.35;;;10.10;81.30;;;8.10;100.00;96694.66;4942207;28;20100;-68
2022/10/09 06:48:31;;;;;;;10.88;7.05;;;10.10;81.30;;;8.15;100.00;96700.25;4925408;28;20060;-68
2022/10/09 06:51:07;;;;;;;12.18;7.13;;;10.10;81.20;;;8.23;100.00;96697.66;4931543;28;20079;-68
2022/10/09 06:53:35;;;;;;;17.60;10.02;;;10.20;81.10;;;8.29;100.00;96702.25;4888173;28;20155;-68
2022/10/09 06:56:00;;;;;;;10.45;5.88;;;10.30;81.00;;;8.36;100.00;96703.28;4932937;28;20502;-67
2022/10/09 06:58:27;;;;;;;10.23;6.35;;;10.40;80.60;;;8.41;100.00;96702.81;4927724;28;20072;-68
2022/10/09 07:01:10;;;;;;;22.20;12.05;;;10.50;80.50;;;8.48;100.00;96707.25;4902202;28;20039;-69
2022/10/09 07:03:37;;;;;;;13.55;7.25;;;10.60;80.20;;;8.52;100.00;96705.94;4919197;28;20051;-67
2022/10/09 07:06:18;;;;;;;9.35;6.38;;;10.60;79.70;;;8.57;100.00;96706.25;4898377;28;20044;-70
2022/10/09 07:08:48;;;;;;;11.40;6.00;;;10.60;79.40;;;8.64;100.00;96705.63;4908010;29;20041;-66
2022/10/09 07:11:25;;;;;;;15.98;6.68;;;10.60;79.30;;;8.70;100.00;96704.97;4891322;28;20581;-67
2022/10/09 07:13:53;;;;;;;12.45;6.88;;;10.60;79.00;;;8.75;100.00;96707.94;4900545;28;20446;-72
2022/10/09 07:16:21;;;;;;;9.48;5.13;;;10.70;78.90;;;8.79;100.00;96715.31;4892172;28;20055;-71
2022/10/09 07:18:47;;;;;;;8.30;4.97;;;10.70;78.90;;;8.81;100.00;96713.34;4920361;28;20059;-67
2022/10/09 07:21:13;;;;;;;13.60;5.43;;;10.80;78.70;;;8.85;100.00;96708.63;4889659;28;20559;-68
2022/10/09 07:23:39;;;;;;;9.40;4.53;;;10.80;78.40;;;8.92;100.00;96709.59;4934307;28;20041;-70
2022/10/09 07:26:14;;;;;;;11.43;4.75;;;10.90;78.30;;;8.99;100.00;96710.56;4929440;28;20126;-67
2022/10/09 07:28:40;;;;;;;9.25;5.25;;;11.10;77.90;;;9.05;100.00;96712.56;4923475;28;20052;-66
2022/10/09 07:31:06;;;;;;;12.15;6.65;;;11.10;77.60;;;9.12;100.00;96718.78;4928727;28;20414;-68
2022/10/09 07:33:32;;;;;;;9.18;5.72;;;11.30;77.20;;;9.20;100.00;96720.56;4923831;28;20029;-69
2022/10/09 07:35:59;;;;;;;8.80;4.95;;;11.40;77.20;;;9.27;100.00;96723.34;4903755;28;20067;-66
2022/10/09 07:38:26;;;;;;;9.40;5.30;;;11.40;76.70;;;9.34;100.00;96729.59;4898172;28;20059;-77
2022/10/09 07:40:52;;;;;;;8.32;5.00;;;11.60;76.70;;;9.40;100.00;96727.13;4894196;28;20464;-74
2022/10/09 07:43:19;;;;;;;7.28;5.03;;;11.70;76.20;;;9.48;100.00;96718.41;4893079;28;20437;-75
2022/10/09 07:45:45;;;;;;;8.30;4.63;;;11.70;75.90;;;9.56;100.00;96718.41;4882045;28;20051;-76
2022/10/09 07:48:11;;;;;;;7.70;5.03;;;11.80;75.30;;;9.62;100.00;96725.59;4899034;28;20040;-76
2022/10/09 07:50:37;;;;;;;9.20;4.25;;;11.80;75.50;;;9.70;100.00;96719.50;4905585;29;20060;-79
2022/10/09 07:53:03;;;;;;;7.70;4.80;;;12.00;75.30;;;9.78;100.00;96714.25;4914865;28;20103;-75
2022/10/09 07:55:28;;;;;;;7.82;4.75;;;12.10;75.20;;;9.85;100.00;96717.00;4884421;28;20064;-62
2022/10/09 07:57:54;;;;;;;8.13;4.70;;;12.10;74.90;;;9.89;100.00;96713.06;4902959;28;20064;-63
2022/10/09 08:00:20;;;;;;;7.03;4.78;;;12.10;75.20;;;9.94;100.00;96711.56;4908017;28;20064;-67
2022/10/09 08:02:46;;;;;;;10.00;4.72;;;12.30;74.50;;;9.99;100.00;96703.19;4889013;28;20120;-65
2022/10/09 08:05:11;;;;;;;10.75;5.75;;;12.30;74.80;;;10.09;100.00;96709.03;4925670;28;20068;-62
2022/10/09 08:07:37;;;;;;;7.22;4.90;;;12.50;74.50;;;10.14;100.00;96711.97;4905751;29;20121;-61
2022/10/09 08:10:04;;;;;;;11.85;8.85;;;12.50;74.20;;;10.24;100.00;96712.63;4946243;28;20033;-67
2022/10/09 08:12:29;;;;;;;11.52;8.10;;;12.60;74.70;;;10.31;100.00;96713.56;4906960;28;20048;-73
2022/10/09 08:14:55;;;;;;;17.13;11.82;;;12.60;74.00;;;10.42;100.00;96718.47;4887642;28;20090;-71
2022/10/09 08:17:21;;;;;;;12.13;7.63;;;12.70;74.60;;;10.54;100.00;96715.44;4907398;28;20132;-70
2022/10/09 08:19:47;;;;;;;9.27;5.30;;;12.90;74.00;;;10.61;100.00;96709.28;4893681;28;20127;-72
2022/10/09 08:22:12;;;;;;;11.18;5.47;;;12.90;73.70;;;10.69;100.00;96721.59;4900093;28;20124;-72
2022/10/09 08:24:38;;;;;;;8.18;5.40;;;13.00;73.50;;;10.78;100.00;96710.00;4908317;28;20071;-70
2022/10/09 08:27:04;;;;;;;9.30;5.47;;;13.10;73.40;;;10.88;100.00;96707.97;4920693;28;20142;-68
2022/10/09 08:29:30;;;;;;;8.00;5.15;;;13.20;72.80;;;10.96;100.00;96713.16;4909675;28;20040;-66
2022/10/09 08:31:56;;;;;;;9.32;7.03;;;13.30;72.90;;;11.08;100.00;96705.66;4892508;28;20042;-68
2022/10/09 08:34:22;;;;;;;14.32;9.50;;;13.50;72.50;;;11.17;100.00;96703.78;4904367;29;20119;-69
2022/10/09 08:36:48;;;;;;;9.15;6.10;;;13.50;72.50;;;11.31;100.00;96705.63;4891879;28;20075;-67
2022/10/09 08:39:14;;;;;;;8.75;5.43;;;13.70;72.50;;;11.41;100.00;96714.13;4951562;28;20038;-66
2022/10/09 08:41:42;;;;;;;8.30;5.60;;;13.80;72.40;;;11.48;100.00;96706.31;4905061;28;20033;-69
2022/10/09 08:44:23;;;;;;;7.68;5.13;;;13.90;71.90;;;11.57;100.00;96698.16;4923151;28;20036;-68
2022/10/09 08:47:07;;;;;;;6.22;4.95;;;13.90;71.90;;;11.62;100.00;96694.97;4924070;28;20159;-68
2022/10/09 08:49:52;;;;;;;7.57;5.40;;;14.00;71.60;;;11.71;100.00;96695.69;4950843;28;20032;-69
2022/10/09 08:52:41;;;;;;;8.13;5.40;;;14.10;71.40;;;11.75;100.00;96697.78;4938087;28;20042;-66
2022/10/09 08:55:27;;;;;;;7.72;5.35;;;14.10;71.40;;;11.86;100.00;96694.75;4906758;29;20143;-69
2022/10/09 08:57:55;;;;;;;9.63;4.65;;;14.20;71.30;;;11.93;100.00;96692.19;4909231;28;20186;-67
2022/10/09 09:00:25;;;;;;;7.93;4.70;;;14.20;71.00;;;11.97;100.00;96685.53;4877210;28;20045;-67
2022/10/09 09:03:25;;;;;;;10.13;5.40;;;14.40;70.90;;;12.07;100.00;96682.63;4920530;28;20059;-68
2022/10/09 09:06:03;;;;;;;7.13;4.55;;;14.40;70.80;;;12.09;100.00;96681.44;4904516;29;20482;-70
2022/10/09 09:08:52;;;;;;;11.82;5.03;;;14.50;70.40;;;12.21;100.00;96676.50;4896171;28;20094;-72
2022/10/09 09:12:03;;;;;;;8.57;4.85;;;14.60;69.60;;;12.35;100.00;96677.50;4921344;28;20048;-69
2022/10/09 09:15:05;;;;;;;9.35;5.88;;;14.70;69.80;;;12.39;100.00;96674.28;4906484;28;20064;-69
2022/10/09 09:17:56;;;;;;;11.30;7.55;;;14.60;69.10;;;12.44;100.00;96666.63;4956204;28;20044;-67
2022/10/09 09:21:03;;;;;;;10.57;7.82;;;14.70;69.20;;;12.49;100.00;96663.44;4922255;28;20183;-70
2022/10/09 09:23:41;;;;;;;7.40;4.28;;;14.70;69.10;;;12.56;100.00;96648.50;4899685;28;20543;-68
2022/10/09 09:26:17;;;;;;;9.30;4.53;;;14.90;69.00;;;12.67;100.00;96650.63;4905530;28;20492;-67
2022/10/09 09:28:43;;;;;;;8.95;4.65;;;15.00;68.60;;;12.74;100.00;96646.25;4903615;28;20036;-66
2022/10/09 09:31:26;;;;;;;10.20;4.53;;;15.10;67.80;;;12.80;100.00;96650.75;4880633;28;20172;-67
2022/10/09 09:33:57;;;;;;;8.45;4.18;;;15.10;67.30;;;12.88;100.00;96647.16;4919402;28;20041;-67
2022/10/09 09:36:34;;;;;;;5.18;3.45;;;15.30;66.40;;;12.98;99.74;96644.22;4891157;28;20028;-67
2022/10/09 09:39:00;;;;;;;7.40;4.00;;;15.40;65.40;;;13.04;100.00;96638.16;4938264;28;20034;-68
2022/10/09 09:41:27;;;;;;;7.18;3.88;;;15.50;65.40;;;13.15;100.00;96650.88;4909706;28;20136;-66
2022/10/09 09:43:53;;;;;;;7.43;4.22;;;15.50;64.60;;;13.20;99.75;96640.56;4897280;29;20036;-67
2022/10/09 09:46:27;;;;;;;14.38;4.68;;;15.60;64.40;;;13.28;98.30;96645.69;4920081;28;20064;-68
2022/10/09 09:48:54;;;;;;;5.25;3.40;;;15.80;64.00;;;13.38;100.00;96637.44;4907306;29;20119;-67
2022/10/09 09:51:26;;;;;;;11.57;4.20;;;16.00;64.10;;;13.53;97.99;96632.03;4888661;28;20091;-66
2022/10/09 09:53:59;;;;;;;5.85;3.63;;;16.10;63.80;;;13.66;98.40;96626.84;4892168;29;20634;-66
2022/10/09 09:56:45;;;;;;;8.05;3.53;;;16.40;62.80;;;13.81;93.22;96622.25;4892741;28;20122;-68
2022/10/09 09:59:38;;;;;;;6.05;3.50;;;16.50;61.10;;;13.88;93.48;96628.38;4909438;28;20040;-70
2022/10/09 10:02:18;;;;;;;5.97;3.65;;;16.50;61.50;;;14.02;91.85;96624.75;4890625;28;20038;-67
2022/10/09 10:04:58;;;;;;;6.15;3.88;;;16.60;60.80;;;14.14;90.62;96626.84;4960665;28;20047;-69
2022/10/09 10:07:35;;;;;;;6.55;3.85;;;16.80;60.30;;;14.25;90.13;96618.31;4923606;29;20040;-70
2022/10/09 10:10:13;;;;;;;7.78;3.50;;;16.90;59.20;;;14.37;88.92;96622.03;4923103;28;20037;-66
2022/10/09 10:12:46;;;;;;;6.82;3.63;;;17.10;59.40;;;14.48;90.23;96624.13;4901815;28;20539;-68
2022/10/09 10:15:32;;;;;;;7.07;4.18;;;17.20;59.30;;;14.61;89.48;96615.41;4925962;28;20048;-67
2022/10/09 10:18:14;;;;;;;7.30;3.50;;;17.30;59.40;;;14.70;87.83;96614.19;4901186;28;20094;-70
2022/10/09 10:20:48;;;;;;;6.72;3.40;;;17.50;58.50;;;14.87;89.22;96617.25;4895129;28;20054;-67
2022/10/09 10:23:50;;;;;;;8.27;4.00;;;17.80;58.40;;;15.03;87.43;96616.88;4894389;28;20388;-67
2022/10/09 10:26:45;;;;;;;9.30;4.07;;;17.80;58.70;;;15.13;86.41;96611.94;4922974;28;20044;-67
2022/10/09 10:29:24;;;;;;;8.45;3.78;;;18.10;57.40;;;15.23;88.82;96611.56;4918208;28;20507;-66
2022/10/09 10:32:05;;;;;;;7.35;3.78;;;18.00;58.10;;;15.34;85.42;96602.97;4901970;28;20032;-66
2022/10/09 10:34:52;;;;;;;6.53;3.97;;;18.00;57.80;;;15.37;85.67;96602.56;4908584;28;20103;-65